sensor_id;sensor_type;location;lat;lon;timestamp;temperature;humidity
14786;DHT22;7484;49.906;9.058;2022-09-09T00:01:58;16.50;99.90
14786;DHT22;7484;49.906;9.058;2022-09-09T00:04:28;16.50;99.90
14786;DHT22;7484;49.906;9.058;2022-09-09T00:07:03;16.50;99.90
14786;DHT22;7484;49.906;9.058;2022-09-09T00:09:38;16.50;99.90
14786;DHT22;7484;49.906;9.058;2022-09-09T00:12:11;16.50;99.90
14786;DHT22;7484;49.906;9.058;2022-09-09T00:14:43;16.40;99.90
14786;DHT22;7484;49.906;9.058;2022-09-09T00:17:14;16.40;99.90
14786;DHT22;7484;49.906;9.058;2022-09-09T00:19:46;16.40;99.90
14786;DHT22;7484;49.906;9.058;2022-09-09T00:22:19;16.30;99.90
14786;DHT22;7484;49.906;9.058;2022-09-09T00:24:47;16.20;99.90
14786;DHT22;7484;49.906;9.058;2022-09-09T00:27:22;16.20;99.90
14786;DHT22;7484;49.906;9.058;2022-09-09T00:29:53;16.20;99.90
14786;DHT22;7484;49.906;9.058;2022-09-09T00:32:21;16.10;99.90
14786;DHT22;7484;49.906;9.058;2022-09-09T00:34:52;16.00;99.90
14786;DHT22;7484;49.906;9.058;2022-09-09T00:37:24;16.00;99.90
14786;DHT22;7484;49.906;9.058;2022-09-09T00:39:54;15.90;99.90
14786;DHT22;7484;49.906;9.058;2022-09-09T00:42:24;15.80;99.90
14786;DHT22;7484;49.906;9.058;2022-09-09T00:44:55;15.80;99.90
14786;DHT22;7484;49.906;9.058;2022-09-09T00:47:38;15.70;99.90
14786;DHT22;7484;49.906;9.058;2022-09-09T00:50:17;15.70;99.90
14786;DHT22;7484;49.906;9.058;2022-09-09T00:52:59;15.80;99.90
14786;DHT22;7484;49.906;9.058;2022-09-09T00:55:36;15.70;99.90
14786;DHT22;7484;49.906;9.058;2022-09-09T00:58:06;15.80;99.90
14786;DHT22;7484;49.906;9.058;2022-09-09T01:00:39;15.80;99.90
14786;DHT22;7484;49.906;9.058;2022-09-09T01:03:21;15.90;99.90
14786;DHT22;7484;49.906;9.058;2022-09-09T01:05:59;16.00;99.90
14786;DHT22;7484;49.906;9.058;2022-09-09T01:08:41;16.10;99.90
14786;DHT22;7484;49.906;9.058;2022-09-09T01:11:15;16.30;99.90
14786;DHT22;7484;49.906;9.058;2022-09-09T01:13:45;16.20;99.90
14786;DHT22;7484;49.906;9.058;2022-09-09T01:16:14;15.80;99.90
14786;DHT22;7484;49.906;9.058;2022-09-09T01:18:44;15.60;99.90
14786;DHT22;7484;49.906;9.058;2022-09-09T01:21:20;15.50;99.90
14786;DHT22;7484;49.906;9.058;2022-09-09T01:24:09;15.50;99.90
14786;DHT22;7484;49.906;9.058;2022-09-09T01:26:54;15.50;99.90
14786;DHT22;7484;49.906;9.058;2022-09-09T01:29:25;15.50;99.90
14786;DHT22;7484;49.906;9.058;2022-09-09T01:31:54;15.50;99.90
14786;DHT22;7484;49.906;9.058;2022-09-09T01:34:23;15.60;99.90
14786;DHT22;7484;49.906;9.058;2022-09-09T01:36:55;15.60;99.90
14786;DHT22;7484;49.906;9.058;2022-09-09T01:39:25;15.60;99.90
14786;DHT22;7484;49.906;9.058;2022-09-09T01:42:02;15.50;99.90
14786;DHT22;7484;49.906;9.058;2022-09-09T01:44:29;15.50;99.90
14786;DHT22;7484;49.906;9.058;2022-09-09T01:46:56;15.50;99.90
14786;DHT22;7484;49.906;9.058;2022-09-09T01:49:23;15.60;99.90
14786;DHT22;7484;49.906;9.058;2022-09-09T01:51:52;15.60;99.90
14786;DHT22;7484;49.906;9.058;2022-09-09T01:54:28;15.50;99.90
14786;DHT22;7484;49.906;9.058;2022-09-09T01:57:08;15.50;99.90
14786;DHT22;7484;49.906;9.058;2022-09-09T01:59:48;15.60;99.90
14786;DHT22;7484;49.906;9.058;2022-09-09T02:02:18;15.60;99.90
14786;DHT22;7484;49.906;9.058;2022-09-09T02:05:04;15.60;99.90
14786;DHT22;7484;49.906;9.058;2022-09-09T02:07:39;15.50;99.90
14786;DHT22;7484;49.906;9.058;2022-09-09T02:10:17;15.70;99.90
14786;DHT22;7484;49.906;9.058;2022-09-09T02:12:59;15.70;99.90
14786;DHT22;7484;49.906;9.058;2022-09-09T02:15:31;15.80;99.90
14786;DHT22;7484;49.906;9.058;2022-09-09T02:18:01;15.80;99.90
14786;DHT22;7484;49.906;9.058;2022-09-09T02:20:32;15.80;99.90
14786;DHT22;7484;49.906;9.058;2022-09-09T02:23:00;15.70;99.90
14786;DHT22;7484;49.906;9.058;2022-09-09T02:25:29;15.70;99.90
14786;DHT22;7484;49.906;9.058;2022-09-09T02:28:06;15.70;99.90
14786;DHT22;7484;49.906;9.058;2022-09-09T02:30:37;15.80;99.90
14786;DHT22;7484;49.906;9.058;2022-09-09T02:33:06;15.80;99.90
14786;DHT22;7484;49.906;9.058;2022-09-09T02:35:44;16.00;99.90
14786;DHT22;7484;49.906;9.058;2022-09-09T02:38:15;16.00;99.90
14786;DHT22;7484;49.906;9.058;2022-09-09T02:40:53;16.00;99.90
14786;DHT22;7484;49.906;9.058;2022-09-09T02:43:22;16.00;99.90
14786;DHT22;7484;49.906;9.058;2022-09-09T02:45:54;16.00;99.90
14786;DHT22;7484;49.906;9.058;2022-09-09T02:48:29;16.00;99.90
14786;DHT22;7484;49.906;9.058;2022-09-09T02:51:02;16.00;99.90
14786;DHT22;7484;49.906;9.058;2022-09-09T02:53:39;16.10;99.90
14786;DHT22;7484;49.906;9.058;2022-09-09T02:56:13;16.00;99.90
14786;DHT22;7484;49.906;9.058;2022-09-09T02:58:45;15.90;99.90
14786;DHT22;7484;49.906;9.058;2022-09-09T03:01:12;15.80;99.90
14786;DHT22;7484;49.906;9.058;2022-09-09T03:03:39;15.70;99.90
14786;DHT22;7484;49.906;9.058;2022-09-09T03:06:10;15.60;99.90
14786;DHT22;7484;49.906;9.058;2022-09-09T03:08:38;15.60;99.90
14786;DHT22;7484;49.906;9.058;2022-09-09T03:11:05;15.60;99.90
14786;DHT22;7484;49.906;9.058;2022-09-09T03:13:35;15.60;99.90
14786;DHT22;7484;49.906;9.058;2022-09-09T03:16:04;15.50;99.90
14786;DHT22;7484;49.906;9.058;2022-09-09T03:18:36;15.60;99.90
14786;DHT22;7484;49.906;9.058;2022-09-09T03:21:04;15.70;99.90
14786;DHT22;7484;49.906;9.058;2022-09-09T03:23:31;15.80;99.90
14786;DHT22;7484;49.906;9.058;2022-09-09T03:26:01;15.80;99.90
14786;DHT22;7484;49.906;9.058;2022-09-09T03:28:37;15.80;99.90
14786;DHT22;7484;49.906;9.058;2022-09-09T03:31:06;15.80;99.90
14786;DHT22;7484;49.906;9.058;2022-09-09T03:33:39;15.80;99.90
14786;DHT22;7484;49.906;9.058;2022-09-09T03:36:07;15.80;99.90
14786;DHT22;7484;49.906;9.058;2022-09-09T03:38:35;15.90;99.90
14786;DHT22;7484;49.906;9.058;2022-09-09T03:41:01;15.80;99.90
14786;DHT22;7484;49.906;9.058;2022-09-09T03:43:32;15.80;99.90
14786;DHT22;7484;49.906;9.058;2022-09-09T03:45:59;15.80;99.90
14786;DHT22;7484;49.906;9.058;2022-09-09T03:48:28;15.70;99.90
14786;DHT22;7484;49.906;9.058;2022-09-09T03:50:56;15.60;99.90
14786;DHT22;7484;49.906;9.058;2022-09-09T03:53:26;15.50;99.90
14786;DHT22;7484;49.906;9.058;2022-09-09T03:55:54;15.60;99.90
14786;DHT22;7484;49.906;9.058;2022-09-09T03:58:24;15.50;99.90
14786;DHT22;7484;49.906;9.058;2022-09-09T04:00:53;15.50;99.90
14786;DHT22;7484;49.906;9.058;2022-09-09T04:03:21;15.50;99.90
14786;DHT22;7484;49.906;9.058;2022-09-09T04:05:50;15.50;99.90
14786;DHT22;7484;49.906;9.058;2022-09-09T04:08:17;15.70;99.90
14786;DHT22;7484;49.906;9.058;2022-09-09T04:10:45;15.70;99.90
14786;DHT22;7484;49.906;9.058;2022-09-09T04:13:13;15.70;99.90
14786;DHT22;7484;49.906;9.058;2022-09-09T04:15:40;15.50;99.90
14786;DHT22;7484;49.906;9.058;2022-09-09T04:18:08;15.40;99.90
14786;DHT22;7484;49.906;9.058;2022-09-09T04:20:34;15.40;99.90
14786;DHT22;7484;49.906;9.058;2022-09-09T04:23:03;15.40;99.90
14786;DHT22;7484;49.906;9.058;2022-09-09T04:25:30;15.40;99.90
14786;DHT22;7484;49.906;9.058;2022-09-09T04:27:57;15.30;99.90
14786;DHT22;7484;49.906;9.058;2022-09-09T04:30:24;15.20;99.90
14786;DHT22;7484;49.906;9.058;2022-09-09T04:32:52;15.20;99.90
14786;DHT22;7484;49.906;9.058;2022-09-09T04:35:19;15.10;99.90
14786;DHT22;7484;49.906;9.058;2022-09-09T04:37:46;15.00;99.90
14786;DHT22;7484;49.906;9.058;2022-09-09T04:40:15;14.90;99.90
14786;DHT22;7484;49.906;9.058;2022-09-09T04:42:42;14.90;99.90
14786;DHT22;7484;49.906;9.058;2022-09-09T04:45:12;14.80;99.90
14786;DHT22;7484;49.906;9.058;2022-09-09T04:47:39;14.80;99.90
14786;DHT22;7484;49.906;9.058;2022-09-09T04:50:07;14.80;99.90
14786;DHT22;7484;49.906;9.058;2022-09-09T04:52:34;14.90;99.90
14786;DHT22;7484;49.906;9.058;2022-09-09T04:55:02;14.90;99.90
14786;DHT22;7484;49.906;9.058;2022-09-09T04:57:30;14.90;99.90
14786;DHT22;7484;49.906;9.058;2022-09-09T04:59:58;15.00;99.90
14786;DHT22;7484;49.906;9.058;2022-09-09T05:02:28;15.20;99.90
14786;DHT22;7484;49.906;9.058;2022-09-09T05:04:56;15.40;99.90
14786;DHT22;7484;49.906;9.058;2022-09-09T05:07:23;15.40;99.90
14786;DHT22;7484;49.906;9.058;2022-09-09T05:09:52;15.50;99.90
14786;DHT22;7484;49.906;9.058;2022-09-09T05:12:19;15.50;99.90
14786;DHT22;7484;49.906;9.058;2022-09-09T05:14:52;15.60;99.90
14786;DHT22;7484;49.906;9.058;2022-09-09T05:17:19;15.70;99.90
14786;DHT22;7484;49.906;9.058;2022-09-09T05:19:46;15.70;99.90
14786;DHT22;7484;49.906;9.058;2022-09-09T05:22:18;15.70;99.90
14786;DHT22;7484;49.906;9.058;2022-09-09T05:24:46;15.70;99.90
14786;DHT22;7484;49.906;9.058;2022-09-09T05:27:13;15.60;99.90
14786;DHT22;7484;49.906;9.058;2022-09-09T05:29:41;15.50;99.90
14786;DHT22;7484;49.906;9.058;2022-09-09T05:32:11;15.40;99.90
14786;DHT22;7484;49.906;9.058;2022-09-09T05:34:39;15.40;99.90
14786;DHT22;7484;49.906;9.058;2022-09-09T05:37:05;15.40;99.90
14786;DHT22;7484;49.906;9.058;2022-09-09T05:39:33;15.50;99.90
14786;DHT22;7484;49.906;9.058;2022-09-09T05:42:02;15.50;99.90
14786;DHT22;7484;49.906;9.058;2022-09-09T05:44:31;15.50;99.90
14786;DHT22;7484;49.906;9.058;2022-09-09T05:47:00;15.60;99.90
14786;DHT22;7484;49.906;9.058;2022-09-09T05:49:28;15.70;99.90
14786;DHT22;7484;49.906;9.058;2022-09-09T05:51:55;15.80;99.90
14786;DHT22;7484;49.906;9.058;2022-09-09T05:54:23;15.90;99.90
14786;DHT22;7484;49.906;9.058;2022-09-09T05:56:51;16.00;99.90
14786;DHT22;7484;49.906;9.058;2022-09-09T05:59:19;16.10;99.90
14786;DHT22;7484;49.906;9.058;2022-09-09T06:01:46;16.20;99.90
14786;DHT22;7484;49.906;9.058;2022-09-09T06:04:20;16.30;99.90
14786;DHT22;7484;49.906;9.058;2022-09-09T06:06:50;16.50;99.90
14786;DHT22;7484;49.906;9.058;2022-09-09T06:09:18;16.50;99.90
14786;DHT22;7484;49.906;9.058;2022-09-09T06:11:45;16.60;99.90
14786;DHT22;7484;49.906;9.058;2022-09-09T06:14:13;16.80;99.90
14786;DHT22;7484;49.906;9.058;2022-09-09T06:16:42;16.90;99.90
14786;DHT22;7484;49.906;9.058;2022-09-09T06:19:17;16.90;99.90
14786;DHT22;7484;49.906;9.058;2022-09-09T06:21:45;16.80;99.90
14786;DHT22;7484;49.906;9.058;2022-09-09T06:24:14;16.80;99.90
14786;DHT22;7484;49.906;9.058;2022-09-09T06:26:43;16.90;99.90
14786;DHT22;7484;49.906;9.058;2022-09-09T06:29:13;16.90;99.90
14786;DHT22;7484;49.906;9.058;2022-09-09T06:31:41;17.00;99.90
14786;DHT22;7484;49.906;9.058;2022-09-09T06:34:21;17.10;99.90
14786;DHT22;7484;49.906;9.058;2022-09-09T06:36:51;17.20;99.90
14786;DHT22;7484;49.906;9.058;2022-09-09T06:39:19;17.30;99.90
14786;DHT22;7484;49.906;9.058;2022-09-09T06:41:46;17.30;99.90
14786;DHT22;7484;49.906;9.058;2022-09-09T06:44:34;17.40;99.90
14786;DHT22;7484;49.906;9.058;2022-09-09T06:47:05;17.40;99.90
14786;DHT22;7484;49.906;9.058;2022-09-09T06:49:32;17.60;99.90
14786;DHT22;7484;49.906;9.058;2022-09-09T06:52:02;17.70;99.90
14786;DHT22;7484;49.906;9.058;2022-09-09T06:54:31;17.80;99.90
14786;DHT22;7484;49.906;9.058;2022-09-09T06:56:58;17.90;99.90
14786;DHT22;7484;49.906;9.058;2022-09-09T06:59:25;18.10;99.90
14786;DHT22;7484;49.906;9.058;2022-09-09T07:01:54;18.30;99.90
14786;DHT22;7484;49.906;9.058;2022-09-09T07:04:21;18.30;99.90
14786;DHT22;7484;49.906;9.058;2022-09-09T07:06:49;18.30;99.90
14786;DHT22;7484;49.906;9.058;2022-09-09T07:09:21;18.40;99.90
14786;DHT22;7484;49.906;9.058;2022-09-09T07:11:52;18.60;99.90
14786;DHT22;7484;49.906;9.058;2022-09-09T07:14:25;18.70;99.90
14786;DHT22;7484;49.906;9.058;2022-09-09T07:16:56;18.90;99.90
14786;DHT22;7484;49.906;9.058;2022-09-09T07:19:23;18.60;99.90
14786;DHT22;7484;49.906;9.058;2022-09-09T07:21:52;18.60;99.90
14786;DHT22;7484;49.906;9.058;2022-09-09T07:24:21;18.70;99.90
14786;DHT22;7484;49.906;9.058;2022-09-09T07:26:48;18.90;99.90
14786;DHT22;7484;49.906;9.058;2022-09-09T07:29:17;18.90;99.90
14786;DHT22;7484;49.906;9.058;2022-09-09T07:31:44;18.90;99.90
14786;DHT22;7484;49.906;9.058;2022-09-09T07:34:14;18.80;99.90
14786;DHT22;7484;49.906;9.058;2022-09-09T07:36:41;18.70;99.90
14786;DHT22;7484;49.906;9.058;2022-09-09T07:39:12;18.60;99.90
14786;DHT22;7484;49.906;9.058;2022-09-09T07:41:45;18.70;99.90
14786;DHT22;7484;49.906;9.058;2022-09-09T07:44:14;18.60;99.90
14786;DHT22;7484;49.906;9.058;2022-09-09T07:46:45;18.60;99.90
14786;DHT22;7484;49.906;9.058;2022-09-09T07:49:15;18.70;99.90
14786;DHT22;7484;49.906;9.058;2022-09-09T07:51:45;18.60;99.90
14786;DHT22;7484;49.906;9.058;2022-09-09T07:54:16;18.60;99.90
14786;DHT22;7484;49.906;9.058;2022-09-09T07:56:48;18.80;99.90
14786;DHT22;7484;49.906;9.058;2022-09-09T07:59:15;18.70;99.90
14786;DHT22;7484;49.906;9.058;2022-09-09T08:01:47;18.50;99.90
14786;DHT22;7484;49.906;9.058;2022-09-09T08:04:18;18.40;99.90
14786;DHT22;7484;49.906;9.058;2022-09-09T08:06:48;18.40;99.90
14786;DHT22;7484;49.906;9.058;2022-09-09T08:09:16;18.30;99.90
14786;DHT22;7484;49.906;9.058;2022-09-09T08:11:45;18.30;99.90
14786;DHT22;7484;49.906;9.058;2022-09-09T08:14:13;18.20;99.90
14786;DHT22;7484;49.906;9.058;2022-09-09T08:16:42;18.30;99.90
14786;DHT22;7484;49.906;9.058;2022-09-09T08:19:13;18.30;99.90
14786;DHT22;7484;49.906;9.058;2022-09-09T08:21:41;18.40;99.90
14786;DHT22;7484;49.906;9.058;2022-09-09T08:24:10;18.30;99.90
14786;DHT22;7484;49.906;9.058;2022-09-09T08:26:39;18.50;99.90
14786;DHT22;7484;49.906;9.058;2022-09-09T08:29:09;18.50;99.90
14786;DHT22;7484;49.906;9.058;2022-09-09T08:31:38;18.50;99.90
14786;DHT22;7484;49.906;9.058;2022-09-09T08:34:07;18.70;99.90
14786;DHT22;7484;49.906;9.058;2022-09-09T08:36:39;19.00;99.90
14786;DHT22;7484;49.906;9.058;2022-09-09T08:39:07;19.30;99.90
14786;DHT22;7484;49.906;9.058;2022-09-09T08:42:08;19.40;99.90
14786;DHT22;7484;49.906;9.058;2022-09-09T08:45:22;19.40;99.90
14786;DHT22;7484;49.906;9.058;2022-09-09T08:48:08;19.40;99.90
14786;DHT22;7484;49.906;9.058;2022-09-09T08:50:39;19.50;99.90
14786;DHT22;7484;49.906;9.058;2022-09-09T08:53:18;19.30;99.90
14786;DHT22;7484;49.906;9.058;2022-09-09T08:55:50;19.10;99.90
14786;DHT22;7484;49.906;9.058;2022-09-09T08:58:25;19.30;99.90
14786;DHT22;7484;49.906;9.058;2022-09-09T09:01:29;19.60;99.90
14786;DHT22;7484;49.906;9.058;2022-09-09T09:04:07;20.00;99.90
14786;DHT22;7484;49.906;9.058;2022-09-09T09:06:46;20.30;99.90
14786;DHT22;7484;49.906;9.058;2022-09-09T09:09:22;20.20;99.90
14786;DHT22;7484;49.906;9.058;2022-09-09T09:11:54;20.30;99.90
14786;DHT22;7484;49.906;9.058;2022-09-09T09:14:24;20.40;99.90
14786;DHT22;7484;49.906;9.058;2022-09-09T09:16:58;20.50;99.90
14786;DHT22;7484;49.906;9.058;2022-09-09T09:19:28;20.60;99.90
14786;DHT22;7484;49.906;9.058;2022-09-09T09:22:01;20.70;99.90
14786;DHT22;7484;49.906;9.058;2022-09-09T09:24:40;20.70;99.90
14786;DHT22;7484;49.906;9.058;2022-09-09T09:27:13;20.40;99.90
14786;DHT22;7484;49.906;9.058;2022-09-09T09:29:44;20.50;99.90
14786;DHT22;7484;49.906;9.058;2022-09-09T09:32:14;20.60;99.90
14786;DHT22;7484;49.906;9.058;2022-09-09T09:34:48;20.60;99.90
14786;DHT22;7484;49.906;9.058;2022-09-09T09:37:19;20.60;99.90
14786;DHT22;7484;49.906;9.058;2022-09-09T09:39:51;20.40;99.90
14786;DHT22;7484;49.906;9.058;2022-09-09T09:42:19;20.50;99.90
14786;DHT22;7484;49.906;9.058;2022-09-09T09:44:47;20.40;99.90
14786;DHT22;7484;49.906;9.058;2022-09-09T09:47:19;20.50;99.90
14786;DHT22;7484;49.906;9.058;2022-09-09T09:50:17;20.60;99.90
14786;DHT22;7484;49.906;9.058;2022-09-09T09:52:54;21.10;99.90
14786;DHT22;7484;49.906;9.058;2022-09-09T09:55:24;21.20;99.90
14786;DHT22;7484;49.906;9.058;2022-09-09T09:57:53;21.10;99.90
14786;DHT22;7484;49.906;9.058;2022-09-09T10:00:21;20.80;99.90
14786;DHT22;7484;49.906;9.058;2022-09-09T10:02:56;20.50;99.90
14786;DHT22;7484;49.906;9.058;2022-09-09T10:05:29;20.60;99.90
14786;DHT22;7484;49.906;9.058;2022-09-09T10:08:03;20.70;99.90
14786;DHT22;7484;49.906;9.058;2022-09-09T10:10:47;20.90;99.90
14786;DHT22;7484;49.906;9.058;2022-09-09T10:13:19;21.10;99.90
14786;DHT22;7484;49.906;9.058;2022-09-09T10:15:57;21.20;99.90
14786;DHT22;7484;49.906;9.058;2022-09-09T10:18:38;21.70;99.90
14786;DHT22;7484;49.906;9.058;2022-09-09T10:21:17;21.90;99.90
14786;DHT22;7484;49.906;9.058;2022-09-09T10:24:02;21.30;99.90
14786;DHT22;7484;49.906;9.058;2022-09-09T10:26:39;21.20;99.90
14786;DHT22;7484;49.906;9.058;2022-09-09T10:29:24;21.10;99.90
14786;DHT22;7484;49.906;9.058;2022-09-09T10:32:03;21.00;99.90
14786;DHT22;7484;49.906;9.058;2022-09-09T10:34:49;20.90;99.90
14786;DHT22;7484;49.906;9.058;2022-09-09T10:37:33;21.30;99.90
14786;DHT22;7484;49.906;9.058;2022-09-09T10:40:11;21.60;99.90
14786;DHT22;7484;49.906;9.058;2022-09-09T10:42:43;22.00;99.90
14786;DHT22;7484;49.906;9.058;2022-09-09T10:45:17;22.20;99.90
14786;DHT22;7484;49.906;9.058;2022-09-09T10:48:04;22.20;99.90
14786;DHT22;7484;49.906;9.058;2022-09-09T10:50:45;22.10;99.90
14786;DHT22;7484;49.906;9.058;2022-09-09T10:53:26;22.20;99.90
14786;DHT22;7484;49.906;9.058;2022-09-09T10:56:01;22.10;99.90
14786;DHT22;7484;49.906;9.058;2022-09-09T10:58:35;22.10;99.90
14786;DHT22;7484;49.906;9.058;2022-09-09T11:01:12;22.30;99.90
14786;DHT22;7484;49.906;9.058;2022-09-09T11:03:43;22.70;99.90
14786;DHT22;7484;49.906;9.058;2022-09-09T11:06:15;23.00;99.90
14786;DHT22;7484;49.906;9.058;2022-09-09T11:08:43;23.30;99.90
14786;DHT22;7484;49.906;9.058;2022-09-09T11:11:25;23.00;99.90
14786;DHT22;7484;49.906;9.058;2022-09-09T11:14:03;23.30;99.90
14786;DHT22;7484;49.906;9.058;2022-09-09T11:16:57;23.30;99.90
14786;DHT22;7484;49.906;9.058;2022-09-09T11:19:40;23.30;99.90
14786;DHT22;7484;49.906;9.058;2022-09-09T11:22:25;23.30;99.90
14786;DHT22;7484;49.906;9.058;2022-09-09T11:25:03;23.30;99.90
14786;DHT22;7484;49.906;9.058;2022-09-09T11:27:56;23.30;99.90
14786;DHT22;7484;49.906;9.058;2022-09-09T11:30:33;23.30;99.90
14786;DHT22;7484;49.906;9.058;2022-09-09T11:33:40;23.40;99.90
14786;DHT22;7484;49.906;9.058;2022-09-09T11:36:28;23.70;99.90
14786;DHT22;7484;49.906;9.058;2022-09-09T11:39:06;23.40;99.90
14786;DHT22;7484;49.906;9.058;2022-09-09T11:41:43;23.70;99.90
14786;DHT22;7484;49.906;9.058;2022-09-09T11:44:16;23.60;99.90
14786;DHT22;7484;49.906;9.058;2022-09-09T11:46:56;23.60;99.90
14786;DHT22;7484;49.906;9.058;2022-09-09T11:49:27;23.40;99.90
14786;DHT22;7484;49.906;9.058;2022-09-09T11:51:54;23.30;99.90
14786;DHT22;7484;49.906;9.058;2022-09-09T11:54:46;23.70;99.90
14786;DHT22;7484;49.906;9.058;2022-09-09T11:57:57;24.10;99.90
14786;DHT22;7484;49.906;9.058;2022-09-09T12:00:41;24.30;99.90
14786;DHT22;7484;49.906;9.058;2022-09-09T12:03:36;24.40;99.10
14786;DHT22;7484;49.906;9.058;2022-09-09T12:06:15;24.20;99.30
14786;DHT22;7484;49.906;9.058;2022-09-09T12:08:48;24.00;98.60
14786;DHT22;7484;49.906;9.058;2022-09-09T12:11:34;24.10;98.40
14786;DHT22;7484;49.906;9.058;2022-09-09T12:14:37;23.60;98.00
14786;DHT22;7484;49.906;9.058;2022-09-09T12:17:19;24.10;98.80
14786;DHT22;7484;49.906;9.058;2022-09-09T12:19:46;24.40;98.10
14786;DHT22;7484;49.906;9.058;2022-09-09T12:22:20;24.20;98.30
14786;DHT22;7484;49.906;9.058;2022-09-09T12:24:56;24.20;98.50
14786;DHT22;7484;49.906;9.058;2022-09-09T12:27:28;24.50;98.60
14786;DHT22;7484;49.906;9.058;2022-09-09T12:30:03;24.40;98.50
14786;DHT22;7484;49.906;9.058;2022-09-09T12:32:30;24.60;98.40
14786;DHT22;7484;49.906;9.058;2022-09-09T12:34:59;24.50;98.40
14786;DHT22;7484;49.906;9.058;2022-09-09T12:37:33;23.90;99.50
14786;DHT22;7484;49.906;9.058;2022-09-09T12:40:03;23.20;99.90
14786;DHT22;7484;49.906;9.058;2022-09-09T12:42:30;22.70;99.90
14786;DHT22;7484;49.906;9.058;2022-09-09T12:45:01;22.70;99.90
14786;DHT22;7484;49.906;9.058;2022-09-09T12:47:37;22.50;99.90
14786;DHT22;7484;49.906;9.058;2022-09-09T12:50:15;22.50;99.90
14786;DHT22;7484;49.906;9.058;2022-09-09T12:52:42;22.70;99.90
14786;DHT22;7484;49.906;9.058;2022-09-09T12:55:18;22.80;99.90
14786;DHT22;7484;49.906;9.058;2022-09-09T12:57:48;22.80;99.90
14786;DHT22;7484;49.906;9.058;2022-09-09T13:00:19;22.60;99.90
14786;DHT22;7484;49.906;9.058;2022-09-09T13:02:50;22.60;99.90
14786;DHT22;7484;49.906;9.058;2022-09-09T13:05:20;22.90;99.90
14786;DHT22;7484;49.906;9.058;2022-09-09T13:07:47;23.10;99.90
14786;DHT22;7484;49.906;9.058;2022-09-09T13:10:22;22.80;99.90
14786;DHT22;7484;49.906;9.058;2022-09-09T13:12:50;22.20;99.90
14786;DHT22;7484;49.906;9.058;2022-09-09T13:15:22;21.90;99.90
14786;DHT22;7484;49.906;9.058;2022-09-09T13:17:56;21.60;99.90
14786;DHT22;7484;49.906;9.058;2022-09-09T13:20:25;21.70;99.90
14786;DHT22;7484;49.906;9.058;2022-09-09T13:22:53;21.90;99.90
14786;DHT22;7484;49.906;9.058;2022-09-09T13:25:23;21.90;99.90
14786;DHT22;7484;49.906;9.058;2022-09-09T13:27:57;22.00;99.90
14786;DHT22;7484;49.906;9.058;2022-09-09T13:30:27;21.90;99.90
14786;DHT22;7484;49.906;9.058;2022-09-09T13:33:06;21.80;99.90
14786;DHT22;7484;49.906;9.058;2022-09-09T13:35:46;21.80;99.90
14786;DHT22;7484;49.906;9.058;2022-09-09T13:38:15;21.80;99.90
14786;DHT22;7484;49.906;9.058;2022-09-09T13:40:52;21.90;99.90
14786;DHT22;7484;49.906;9.058;2022-09-09T13:43:22;21.80;99.90
14786;DHT22;7484;49.906;9.058;2022-09-09T13:45:54;21.40;99.90
14786;DHT22;7484;49.906;9.058;2022-09-09T13:48:23;21.30;99.90
14786;DHT22;7484;49.906;9.058;2022-09-09T13:50:55;21.40;99.90
14786;DHT22;7484;49.906;9.058;2022-09-09T13:53:22;21.40;99.90
14786;DHT22;7484;49.906;9.058;2022-09-09T13:55:50;21.50;99.90
14786;DHT22;7484;49.906;9.058;2022-09-09T13:58:17;21.70;99.90
14786;DHT22;7484;49.906;9.058;2022-09-09T14:00:45;21.50;99.90
14786;DHT22;7484;49.906;9.058;2022-09-09T14:03:13;21.50;99.90
14786;DHT22;7484;49.906;9.058;2022-09-09T14:05:40;21.40;99.90
14786;DHT22;7484;49.906;9.058;2022-09-09T14:08:14;21.50;99.90
14786;DHT22;7484;49.906;9.058;2022-09-09T14:10:41;21.80;99.90
14786;DHT22;7484;49.906;9.058;2022-09-09T14:13:08;21.50;99.90
14786;DHT22;7484;49.906;9.058;2022-09-09T14:15:35;21.60;99.90
14786;DHT22;7484;49.906;9.058;2022-09-09T14:18:02;21.60;99.90
14786;DHT22;7484;49.906;9.058;2022-09-09T14:20:30;21.50;99.90
14786;DHT22;7484;49.906;9.058;2022-09-09T14:22:57;21.30;99.90
14786;DHT22;7484;49.906;9.058;2022-09-09T14:25:24;21.30;99.90
14786;DHT22;7484;49.906;9.058;2022-09-09T14:27:50;21.20;99.90
14786;DHT22;7484;49.906;9.058;2022-09-09T14:30:17;21.30;99.90
14786;DHT22;7484;49.906;9.058;2022-09-09T14:32:44;21.20;99.90
14786;DHT22;7484;49.906;9.058;2022-09-09T14:35:12;21.10;99.90
14786;DHT22;7484;49.906;9.058;2022-09-09T14:37:50;21.00;99.90
14786;DHT22;7484;49.906;9.058;2022-09-09T14:40:29;20.80;99.90
14786;DHT22;7484;49.906;9.058;2022-09-09T14:42:58;20.80;99.90
14786;DHT22;7484;49.906;9.058;2022-09-09T14:45:28;20.90;99.90
14786;DHT22;7484;49.906;9.058;2022-09-09T14:51:35;20.70;99.90
14786;DHT22;7484;49.906;9.058;2022-09-09T14:54:04;21.80;99.90
14786;DHT22;7484;49.906;9.058;2022-09-09T14:56:32;22.80;99.90
14786;DHT22;7484;49.906;9.058;2022-09-09T14:59:00;23.60;99.90
14786;DHT22;7484;49.906;9.058;2022-09-09T15:01:29;23.90;99.90
14786;DHT22;7484;49.906;9.058;2022-09-09T15:03:58;24.00;99.90
14786;DHT22;7484;49.906;9.058;2022-09-09T15:06:29;23.90;99.90
14786;DHT22;7484;49.906;9.058;2022-09-09T15:08:56;22.80;99.90
14786;DHT22;7484;49.906;9.058;2022-09-09T15:11:27;22.00;99.90
14786;DHT22;7484;49.906;9.058;2022-09-09T15:13:56;21.50;99.90
14786;DHT22;7484;49.906;9.058;2022-09-09T15:16:25;21.40;99.90
14786;DHT22;7484;49.906;9.058;2022-09-09T15:18:54;21.50;99.90
14786;DHT22;7484;49.906;9.058;2022-09-09T15:21:23;21.30;99.90
14786;DHT22;7484;49.906;9.058;2022-09-09T15:23:50;21.30;99.90
14786;DHT22;7484;49.906;9.058;2022-09-09T15:26:17;21.00;99.90
14786;DHT22;7484;49.906;9.058;2022-09-09T15:28:46;20.70;99.90
14786;DHT22;7484;49.906;9.058;2022-09-09T15:31:14;20.50;99.90
14786;DHT22;7484;49.906;9.058;2022-09-09T15:33:47;20.40;99.90
14786;DHT22;7484;49.906;9.058;2022-09-09T15:36:15;20.40;99.90
14786;DHT22;7484;49.906;9.058;2022-09-09T15:38:42;20.50;99.90
14786;DHT22;7484;49.906;9.058;2022-09-09T15:41:09;20.50;99.90
14786;DHT22;7484;49.906;9.058;2022-09-09T15:43:36;20.50;99.90
14786;DHT22;7484;49.906;9.058;2022-09-09T15:46:21;20.80;99.90
14786;DHT22;7484;49.906;9.058;2022-09-09T15:48:52;20.70;99.90
14786;DHT22;7484;49.906;9.058;2022-09-09T15:51:18;20.50;99.90
14786;DHT22;7484;49.906;9.058;2022-09-09T15:53:45;20.60;99.90
14786;DHT22;7484;49.906;9.058;2022-09-09T15:56:12;20.70;99.90
14786;DHT22;7484;49.906;9.058;2022-09-09T15:58:39;20.70;99.90
14786;DHT22;7484;49.906;9.058;2022-09-09T16:01:08;20.80;99.90
14786;DHT22;7484;49.906;9.058;2022-09-09T16:03:36;20.90;99.90
14786;DHT22;7484;49.906;9.058;2022-09-09T16:06:03;21.10;99.90
14786;DHT22;7484;49.906;9.058;2022-09-09T16:08:32;21.30;99.90
14786;DHT22;7484;49.906;9.058;2022-09-09T16:11:05;21.40;99.90
14786;DHT22;7484;49.906;9.058;2022-09-09T16:13:33;21.40;99.90
14786;DHT22;7484;49.906;9.058;2022-09-09T16:16:00;21.20;99.90
14786;DHT22;7484;49.906;9.058;2022-09-09T16:18:37;20.80;99.90
14786;DHT22;7484;49.906;9.058;2022-09-09T16:21:04;20.60;99.90